createdAt,value
2018-03-01T00:00:07.476Z,57.20
2018-03-01T00:02:36.136Z,56.90
2018-03-01T00:05:04.814Z,57.50
2018-03-01T00:07:33.467Z,57.00
2018-03-01T00:10:02.890Z,57.20
2018-03-01T00:12:31.548Z,57.20
2018-03-01T00:15:00.971Z,57.30
2018-03-01T00:17:29.640Z,57.20
2018-03-01T00:19:59.052Z,57.50
2018-03-01T00:22:36.914Z,57.40
2018-03-01T00:25:05.385Z,57.20
2018-03-01T00:27:34.052Z,57.20
2018-03-01T00:30:02.710Z,57.30
2018-03-01T00:32:31.359Z,57.30
2018-03-01T00:35:00.033Z,57.30
2018-03-01T00:37:28.680Z,56.90
2018-03-01T00:39:57.357Z,56.80
2018-03-01T00:42:26.010Z,56.70
2018-03-01T00:44:55.414Z,57.30
2018-03-01T00:47:25.880Z,57.50
2018-03-01T00:49:55.316Z,57.50
2018-03-01T00:52:24.825Z,57.60
2018-03-01T00:54:53.830Z,57.30
2018-03-01T00:57:23.264Z,57.60
2018-03-01T00:59:52.210Z,57.60
2018-03-01T01:02:20.870Z,57.40
2018-03-01T01:04:49.532Z,57.50
2018-03-01T01:07:18.180Z,57.70
2018-03-01T01:09:47.609Z,57.30
2018-03-01T01:12:16.290Z,57.30
2018-03-01T01:14:45.905Z,57.50
2018-03-01T01:17:14.553Z,57.30
2018-03-01T01:19:43.972Z,57.30
2018-03-01T01:22:12.640Z,57.30
2018-03-01T01:24:42.069Z,57.60
2018-03-01T01:27:10.741Z,57.50
2018-03-01T01:29:39.389Z,57.50
2018-03-01T01:32:08.052Z,57.60
2018-03-01T01:34:36.728Z,57.60
2018-03-01T01:37:05.641Z,57.60
2018-03-01T01:39:34.314Z,57.70
2018-03-01T01:42:02.947Z,57.80
2018-03-01T01:44:31.593Z,57.70
2018-03-01T01:47:00.270Z,57.50
2018-03-01T01:49:28.936Z,57.50
2018-03-01T01:51:57.600Z,57.70
2018-03-01T01:54:26.242Z,57.70
2018-03-01T01:56:55.672Z,57.20
2018-03-01T01:59:24.326Z,57.60
2018-03-01T02:01:53.433Z,57.70
2018-03-01T02:04:23.269Z,57.80
2018-03-01T02:06:52.335Z,57.80
2018-03-01T02:09:23.515Z,57.70
2018-03-01T02:11:52.260Z,57.70
2018-03-01T02:14:20.943Z,57.90
2018-03-01T02:16:50.377Z,58.30
2018-03-01T02:19:19.053Z,57.90
2018-03-01T02:21:47.749Z,58.00
2018-03-01T02:24:16.415Z,58.20
2018-03-01T02:26:45.105Z,58.20
2018-03-01T02:29:13.784Z,58.30
2018-03-01T02:31:42.486Z,58.50
2018-03-01T02:34:10.838Z,58.50
2018-03-01T02:36:38.878Z,58.60
2018-03-01T02:39:08.312Z,58.60
2018-03-01T02:41:36.993Z,58.60
2018-03-01T02:44:05.663Z,58.60
2018-03-01T02:46:34.331Z,58.60
2018-03-01T02:49:03.789Z,58.60
2018-03-01T02:51:32.482Z,58.60
2018-03-01T02:54:00.995Z,58.60
2018-03-01T02:56:30.450Z,58.60
2018-03-01T02:58:59.108Z,58.60
2018-03-01T03:01:27.797Z,58.90
2018-03-01T03:03:56.471Z,58.70
2018-03-01T03:06:25.157Z,58.80
2018-03-01T03:08:53.819Z,58.90
2018-03-01T03:11:23.288Z,59.10
2018-03-01T03:13:51.969Z,59.10
2018-03-01T03:16:20.657Z,59.20
2018-03-01T03:18:49.357Z,59.10
2018-03-01T03:21:18.049Z,59.30
2018-03-01T03:23:47.702Z,59.40
2018-03-01T03:26:16.398Z,59.30
2018-03-01T03:28:45.597Z,59.50
2018-03-01T03:31:14.846Z,59.60
2018-03-01T03:33:44.808Z,59.50
2018-03-01T03:36:13.471Z,59.30
2018-03-01T03:38:42.143Z,59.40
2018-03-01T03:41:10.896Z,59.40
2018-03-01T03:43:39.574Z,59.40
2018-03-01T03:46:08.239Z,59.20
2018-03-01T03:48:36.931Z,59.40
2018-03-01T03:51:05.646Z,59.30
2018-03-01T03:53:35.082Z,59.30
2018-03-01T03:56:03.761Z,59.30
2018-03-01T03:58:32.461Z,59.40
2018-03-01T04:01:01.132Z,59.40
2018-03-01T04:03:29.821Z,59.20
2018-03-01T04:05:58.495Z,59.20
2018-03-01T04:08:27.167Z,59.40
2018-03-01T04:10:56.625Z,59.60
2018-03-01T04:13:26.069Z,59.70
2018-03-01T04:15:55.519Z,59.80
2018-03-01T04:18:24.201Z,59.80
2018-03-01T04:20:52.884Z,59.80
2018-03-01T04:23:21.552Z,59.80
2018-03-01T04:25:50.237Z,59.60
2018-03-01T04:28:18.937Z,59.50
2018-03-01T04:30:47.616Z,59.50
2018-03-01T04:33:16.313Z,59.60
2018-03-01T04:35:45.426Z,59.50
2018-03-01T04:38:14.245Z,59.60
2018-03-01T04:40:43.666Z,59.70
2018-03-01T04:43:12.356Z,59.70
2018-03-01T04:45:41.038Z,59.60
2018-03-01T04:48:09.715Z,59.50
2018-03-01T04:50:38.401Z,59.50
2018-03-01T04:53:07.093Z,59.50
2018-03-01T04:55:35.773Z,59.50
2018-03-01T04:58:04.485Z,59.50
2018-03-01T05:00:33.186Z,59.50
2018-03-01T05:03:01.858Z,59.50
2018-03-01T05:05:30.541Z,59.50
2018-03-01T05:07:59.457Z,59.30
2018-03-01T05:10:28.149Z,59.30
2018-03-01T05:12:56.838Z,59.50
2018-03-01T05:15:25.518Z,59.20
2018-03-01T05:17:54.196Z,59.00
2018-03-01T05:20:22.875Z,59.00
2018-03-01T05:22:51.549Z,59.20
2018-03-01T05:25:20.252Z,59.30
2018-03-01T05:27:48.933Z,59.10
2018-03-01T05:30:17.600Z,59.10
2018-03-01T05:32:47.284Z,59.30
2018-03-01T05:35:16.712Z,59.10
2018-03-01T05:37:45.391Z,59.30
2018-03-01T05:40:15.031Z,59.40
2018-03-01T05:42:45.111Z,59.40
2018-03-01T05:45:13.804Z,59.60
2018-03-01T05:47:43.573Z,59.30
2018-03-01T05:50:13.001Z,59.50
2018-03-01T05:52:41.689Z,59.50
2018-03-01T05:55:11.169Z,60.00
2018-03-01T05:57:39.843Z,59.40
2018-03-01T06:00:08.521Z,59.40
2018-03-01T06:02:37.989Z,59.40
2018-03-01T06:05:06.855Z,59.40
2018-03-01T06:07:35.525Z,59.50
2018-03-01T06:10:03.873Z,59.50
2018-03-01T06:12:33.337Z,59.40
2018-03-01T06:15:02.027Z,59.40
2018-03-01T06:17:30.686Z,59.40
2018-03-01T06:19:59.364Z,59.30
2018-03-01T06:22:28.053Z,59.20
2018-03-01T06:24:56.719Z,59.30
2018-03-01T06:27:25.410Z,59.10
2018-03-01T06:29:54.075Z,59.20
2018-03-01T06:32:23.520Z,59.20
2018-03-01T06:34:52.196Z,59.20
2018-03-01T06:37:20.896Z,59.20
2018-03-01T06:39:49.569Z,59.30
2018-03-01T06:42:18.244Z,59.20
2018-03-01T06:44:47.757Z,59.30
2018-03-01T06:47:16.432Z,59.30
2018-03-01T06:49:45.717Z,59.50
2018-03-01T06:52:14.964Z,59.60
2018-03-01T06:54:43.635Z,59.50
2018-03-01T06:57:12.304Z,59.50
2018-03-01T06:59:41.008Z,59.30
2018-03-01T07:02:09.680Z,59.40
2018-03-01T07:04:38.165Z,59.50
2018-03-01T07:07:06.834Z,59.40
2018-03-01T07:09:35.520Z,59.40
2018-03-01T07:12:04.194Z,59.30
2018-03-01T07:14:32.876Z,59.50
2018-03-01T07:17:01.579Z,59.30
2018-03-01T07:19:30.263Z,59.30
2018-03-01T07:21:58.956Z,59.10
2018-03-01T07:24:27.624Z,59.10
2018-03-01T07:26:56.308Z,58.80
2018-03-01T07:29:24.984Z,58.90
2018-03-01T07:31:53.683Z,58.70
2018-03-01T07:34:22.374Z,58.70
2018-03-01T07:36:51.062Z,58.80
2018-03-01T07:39:19.761Z,58.70
2018-03-01T07:41:48.429Z,58.60
2018-03-01T07:44:17.120Z,58.40
2018-03-01T07:46:45.783Z,58.40
2018-03-01T07:49:14.420Z,58.50
2018-03-01T07:51:43.855Z,58.30
2018-03-01T07:54:12.557Z,58.30
2018-03-01T07:56:41.220Z,58.10
2018-03-01T07:59:09.874Z,58.00
2018-03-01T08:01:39.339Z,58.00
2018-03-01T08:04:08.018Z,58.00
2018-03-01T08:06:36.704Z,58.00
2018-03-01T08:09:06.165Z,58.40
2018-03-01T08:11:34.841Z,58.40
2018-03-01T08:14:04.283Z,58.60
2018-03-01T08:16:32.951Z,58.50
2018-03-01T08:19:01.649Z,58.50
2018-03-01T08:21:30.331Z,58.50
2018-03-01T08:23:59.012Z,58.40
2018-03-01T08:26:27.705Z,58.30
2018-03-01T08:28:56.380Z,58.30
2018-03-01T08:31:25.109Z,58.30
2018-03-01T08:33:53.927Z,58.10
2018-03-01T08:36:22.613Z,58.10
2018-03-01T08:38:51.305Z,58.10
2018-03-01T08:41:19.968Z,58.10
2018-03-01T08:43:49.399Z,58.20
2018-03-01T08:46:18.057Z,58.30
2018-03-01T08:48:46.783Z,58.10
2018-03-01T08:51:16.385Z,58.10
2018-03-01T08:53:45.082Z,58.10
2018-03-01T08:56:14.511Z,58.20
2018-03-01T08:58:43.952Z,58.00
2018-03-01T09:01:12.656Z,57.90
2018-03-01T09:03:42.102Z,57.50
2018-03-01T09:06:11.531Z,57.70
2018-03-01T09:08:40.217Z,57.70
2018-03-01T09:11:08.920Z,57.70
2018-03-01T09:13:37.582Z,57.50
2018-03-01T09:16:06.290Z,57.40
2018-03-01T09:18:34.947Z,57.70
2018-03-01T09:21:03.615Z,57.60
2018-03-01T09:23:33.065Z,57.70
2018-03-01T09:26:01.720Z,57.70
2018-03-01T09:28:30.401Z,57.50
2018-03-01T09:30:59.086Z,57.60
2018-03-01T09:33:27.828Z,57.70
2018-03-01T09:35:56.516Z,57.50
2018-03-01T09:38:25.190Z,57.60
2018-03-01T09:40:53.876Z,57.40
2018-03-01T09:43:22.542Z,57.20
2018-03-01T09:45:51.279Z,56.90
2018-03-01T09:48:21.050Z,56.60
2018-03-01T09:50:49.730Z,56.60
2018-03-01T09:53:18.415Z,56.40
2018-03-01T09:55:47.104Z,56.20
2018-03-01T09:58:15.776Z,56.30
2018-03-01T10:00:44.256Z,56.70
2018-03-01T10:03:12.748Z,56.70
2018-03-01T10:05:41.096Z,56.60
2018-03-01T10:08:09.773Z,56.80
2018-03-01T10:10:38.452Z,55.90
2018-03-01T10:13:07.143Z,56.60
2018-03-01T10:15:35.850Z,56.40
2018-03-01T10:18:04.564Z,55.90
2018-03-01T10:20:33.387Z,55.60
2018-03-01T10:23:02.073Z,54.80
2018-03-01T10:25:31.542Z,54.90
2018-03-01T10:28:00.225Z,54.90
2018-03-01T10:30:28.892Z,54.70
2018-03-01T10:32:58.328Z,54.80
2018-03-01T10:35:27.187Z,54.80
2018-03-01T10:37:55.865Z,54.80
2018-03-01T10:40:24.553Z,54.60
2018-03-01T10:42:53.221Z,55.10
2018-03-01T10:45:22.374Z,55.40
2018-03-01T10:47:52.442Z,55.10
2018-03-01T10:50:22.358Z,55.40
2018-03-01T10:52:51.048Z,55.40
2018-03-01T10:55:19.720Z,55.30
2018-03-01T10:57:48.405Z,54.90
2018-03-01T11:00:22.650Z,55.00
2018-03-01T11:02:52.032Z,55.10
2018-03-01T11:05:20.948Z,55.00
2018-03-01T11:07:49.621Z,54.60
2018-03-01T11:10:18.100Z,54.70
2018-03-01T11:12:46.592Z,54.20
2018-03-01T11:15:15.270Z,53.60
2018-03-01T11:17:43.774Z,53.40
2018-03-01T11:20:13.054Z,53.70
2018-03-01T11:22:41.532Z,53.70
2018-03-01T11:25:10.041Z,53.90
2018-03-01T11:27:38.720Z,53.60
2018-03-01T11:30:07.068Z,53.50
2018-03-01T11:32:35.763Z,53.60
2018-03-01T11:35:05.244Z,52.90
2018-03-01T11:37:34.100Z,52.90
2018-03-01T11:40:02.766Z,52.90
2018-03-01T11:42:31.474Z,53.10
2018-03-01T11:45:00.146Z,52.80
2018-03-01T11:47:28.832Z,53.60
2018-03-01T11:49:57.508Z,53.20
2018-03-01T11:52:26.197Z,52.30
2018-03-01T11:54:54.864Z,51.90
2018-03-01T11:57:24.316Z,52.20
2018-03-01T11:59:53.704Z,52.10
2018-03-01T12:02:22.858Z,52.50
2018-03-01T12:04:52.321Z,51.50
2018-03-01T12:07:21.049Z,51.40
2018-03-01T12:09:50.479Z,51.00
2018-03-01T12:12:19.163Z,51.00
2018-03-01T12:14:47.845Z,51.80
2018-03-01T12:17:16.558Z,51.70
2018-03-01T12:19:45.246Z,51.00
2018-03-01T12:22:13.920Z,50.60
2018-03-01T12:24:42.428Z,51.50
2018-03-01T12:27:11.116Z,51.00
2018-03-01T12:29:39.805Z,50.50
2018-03-01T12:32:08.316Z,50.40
2018-03-01T12:34:36.987Z,51.00
2018-03-01T12:37:05.396Z,51.30
2018-03-01T12:39:33.815Z,50.80
2018-03-01T12:42:02.994Z,49.60
2018-03-01T12:44:31.404Z,49.70
2018-03-01T12:46:59.808Z,50.40
2018-03-01T12:49:28.310Z,49.60
2018-03-01T12:51:56.804Z,49.50
2018-03-01T12:54:25.508Z,49.70
2018-03-01T12:56:54.487Z,50.00
2018-03-01T12:59:23.800Z,49.90
2018-03-01T13:01:53.557Z,48.90
2018-03-01T13:04:27.409Z,49.00
2018-03-01T13:06:56.402Z,48.40
2018-03-01T13:09:25.394Z,48.20
2018-03-01T13:11:54.395Z,48.30
2018-03-01T13:14:24.332Z,48.60
2018-03-01T13:16:52.596Z,48.50
2018-03-01T13:19:20.822Z,49.50
2018-03-01T13:21:49.320Z,49.20
2018-03-01T13:24:17.584Z,48.40
2018-03-01T13:26:45.828Z,47.40
2018-03-01T13:29:14.027Z,46.90
2018-03-01T13:31:43.005Z,47.00
2018-03-01T13:34:11.502Z,47.20
2018-03-01T13:36:39.727Z,47.30
2018-03-01T13:39:07.977Z,48.10
2018-03-01T13:41:36.955Z,47.50
2018-03-01T13:44:05.173Z,47.50
2018-03-01T13:46:34.905Z,47.60
2018-03-01T13:49:03.117Z,47.60
2018-03-01T13:51:31.649Z,48.00
2018-03-01T13:54:00.895Z,47.90
2018-03-01T13:56:29.124Z,47.90
2018-03-01T13:58:58.390Z,48.00
2018-03-01T14:01:26.893Z,47.90
2018-03-01T14:03:56.142Z,48.20
2018-03-01T14:06:40.299Z,48.10
2018-03-01T14:09:08.805Z,47.70
2018-03-01T14:11:37.298Z,48.10
2018-03-01T14:14:08.488Z,48.60
2018-03-01T14:16:36.982Z,48.30
2018-03-01T14:19:07.912Z,48.30
2018-03-01T14:21:54.220Z,48.20
2018-03-01T14:24:32.634Z,48.00
2018-03-01T14:27:18.546Z,48.50
2018-03-01T14:29:47.213Z,48.60
2018-03-01T14:32:15.695Z,48.70
2018-03-01T14:34:44.398Z,48.90
2018-03-01T14:37:13.072Z,48.80
2018-03-01T14:39:42.503Z,49.10
2018-03-01T14:42:11.175Z,48.50
2018-03-01T14:44:39.845Z,48.60
2018-03-01T14:47:09.314Z,48.90
2018-03-01T14:49:38.003Z,48.90
2018-03-01T14:52:06.705Z,48.70
2018-03-01T14:54:35.388Z,48.40
2018-03-01T14:57:03.738Z,48.70
2018-03-01T14:59:32.429Z,48.90
2018-03-01T15:02:01.113Z,48.40
2018-03-01T15:04:29.802Z,48.80
2018-03-01T15:06:58.500Z,49.00
2018-03-01T15:09:27.184Z,48.80
2018-03-01T15:11:55.864Z,48.40
2018-03-01T15:14:24.543Z,48.20
2018-03-01T15:16:53.985Z,48.30
2018-03-01T15:19:23.454Z,48.70
2018-03-01T15:21:52.132Z,48.70
2018-03-01T15:24:21.610Z,48.70
2018-03-01T15:26:50.640Z,48.50
2018-03-01T15:29:19.317Z,48.70
2018-03-01T15:31:48.001Z,48.10
2018-03-01T15:34:16.677Z,48.60
2018-03-01T15:36:45.370Z,48.70
2018-03-01T15:39:14.043Z,49.10
2018-03-01T15:41:42.711Z,48.70
2018-03-01T15:44:11.411Z,48.80
2018-03-01T15:46:40.121Z,48.70
2018-03-01T15:49:08.807Z,48.80
2018-03-01T15:51:37.485Z,49.00
2018-03-01T15:54:06.176Z,49.20
2018-03-01T15:56:34.844Z,49.10
2018-03-01T15:59:03.580Z,48.90
2018-03-01T16:01:33.029Z,49.00
2018-03-01T16:04:01.737Z,49.00
2018-03-01T16:06:30.408Z,48.90
2018-03-01T16:08:59.079Z,48.70
2018-03-01T16:11:27.780Z,48.50
2018-03-01T16:13:56.444Z,48.70
2018-03-01T16:16:25.884Z,48.90
2018-03-01T16:18:54.385Z,48.90
2018-03-01T16:21:23.840Z,48.70
2018-03-01T16:23:53.068Z,48.60
2018-03-01T16:26:21.731Z,48.90
2018-03-01T16:28:50.606Z,48.90
2018-03-01T16:31:19.305Z,49.20
2018-03-01T16:33:48.753Z,49.40
2018-03-01T16:36:18.205Z,49.40
2018-03-01T16:38:47.639Z,49.50
2018-03-01T16:41:16.324Z,48.90
2018-03-01T16:43:44.992Z,49.50
2018-03-01T16:46:13.667Z,49.70
2018-03-01T16:48:42.354Z,49.30
2018-03-01T16:51:12.666Z,49.50
2018-03-01T16:53:41.343Z,49.40
2018-03-01T16:56:10.188Z,49.90
2018-03-01T16:58:39.649Z,49.60
2018-03-01T17:01:08.338Z,49.50
2018-03-01T17:03:37.019Z,49.90
2018-03-01T17:06:05.687Z,49.90
2018-03-01T17:08:34.443Z,49.90
2018-03-01T17:11:03.099Z,50.10
2018-03-01T17:13:32.597Z,50.30
2018-03-01T17:16:01.293Z,50.30
2018-03-01T17:18:30.729Z,50.90
2018-03-01T17:20:59.422Z,50.50
2018-03-01T17:23:28.088Z,50.50
2018-03-01T17:25:56.772Z,50.40
2018-03-01T17:28:25.454Z,50.40
2018-03-01T17:30:54.152Z,50.70
2018-03-01T17:33:23.585Z,50.60
2018-03-01T17:35:52.263Z,50.50
2018-03-01T17:38:21.298Z,50.80
2018-03-01T17:40:50.723Z,51.10
2018-03-01T17:43:19.414Z,51.00
2018-03-01T17:45:48.089Z,51.10
2018-03-01T17:48:16.780Z,50.80
2018-03-01T17:50:45.476Z,52.00
2018-03-01T17:53:14.160Z,51.20
2018-03-01T17:55:42.856Z,51.20
2018-03-01T17:58:11.550Z,51.40
2018-03-01T18:00:40.252Z,51.80
2018-03-01T18:03:08.943Z,51.50
2018-03-01T18:05:37.630Z,51.50
2018-03-01T18:08:06.351Z,51.60
2018-03-01T18:10:35.015Z,52.00
2018-03-01T18:13:04.453Z,52.40
2018-03-01T18:15:33.157Z,52.30
2018-03-01T18:18:01.831Z,52.70
2018-03-01T18:20:30.514Z,52.50
2018-03-01T18:22:59.004Z,52.50
2018-03-01T18:25:27.693Z,52.00
2018-03-01T18:27:57.152Z,51.90
2018-03-01T18:30:25.858Z,51.90
2018-03-01T18:32:54.524Z,51.90
2018-03-01T18:35:23.965Z,52.30
2018-03-01T18:37:53.408Z,51.70
2018-03-01T18:40:22.863Z,53.10
2018-03-01T18:42:52.209Z,53.10
2018-03-01T18:45:21.680Z,52.50
2018-03-01T18:47:50.390Z,52.40
2018-03-01T18:50:19.822Z,52.00
2018-03-01T18:52:48.512Z,51.90
2018-03-01T18:55:17.198Z,51.90
2018-03-01T18:57:45.883Z,52.40
2018-03-01T19:00:14.548Z,52.00
2018-03-01T19:02:44.227Z,51.60
2018-03-01T19:05:12.905Z,51.60
2018-03-01T19:07:41.615Z,51.40
2018-03-01T19:10:11.060Z,51.60
2018-03-01T19:12:39.741Z,51.50
2018-03-01T19:15:08.451Z,51.60
2018-03-01T19:17:37.124Z,51.80
2018-03-01T19:20:05.818Z,51.50
2018-03-01T19:22:34.491Z,52.30
2018-03-01T19:25:03.894Z,51.90
2018-03-01T19:27:32.785Z,52.30
2018-03-01T19:30:02.030Z,52.10
2018-03-01T19:32:32.139Z,52.30
2018-03-01T19:35:02.150Z,52.60
2018-03-01T19:37:30.838Z,52.60
2018-03-01T19:40:00.274Z,52.30
2018-03-01T19:42:28.964Z,52.20
2018-03-01T19:44:57.670Z,52.20
2018-03-01T19:47:26.372Z,52.60
2018-03-01T19:49:55.047Z,52.10
2018-03-01T19:52:24.572Z,52.40
2018-03-01T19:54:53.261Z,52.40
2018-03-01T19:57:22.712Z,53.30
2018-03-01T19:59:51.693Z,53.30
2018-03-01T20:02:20.382Z,52.80
2018-03-01T20:04:49.058Z,52.30
2018-03-01T20:07:18.708Z,52.50
2018-03-01T20:09:47.400Z,52.30
2018-03-01T20:12:16.088Z,52.70
2018-03-01T20:14:44.761Z,52.30
2018-03-01T20:17:13.283Z,52.20
2018-03-01T20:19:42.728Z,52.40
2018-03-01T20:22:11.406Z,52.30
2018-03-01T20:24:40.077Z,52.30
2018-03-01T20:27:08.789Z,52.30
2018-03-01T20:29:37.459Z,52.20
2018-03-01T20:32:06.146Z,52.60
2018-03-01T20:34:34.834Z,52.60
2018-03-01T20:37:04.088Z,52.80
2018-03-01T20:39:32.799Z,52.80
2018-03-01T20:42:02.292Z,52.80
2018-03-01T20:44:31.097Z,52.70
2018-03-01T20:46:59.782Z,52.60
2018-03-01T20:49:28.531Z,52.80
2018-03-01T20:51:57.223Z,52.80
2018-03-01T20:54:25.892Z,53.00
2018-03-01T20:56:54.601Z,53.00
2018-03-01T20:59:24.503Z,53.50
2018-03-01T21:01:53.176Z,53.50
2018-03-01T21:04:22.500Z,53.00
2018-03-01T21:06:52.501Z,53.20
2018-03-01T21:09:21.206Z,53.20
2018-03-01T21:11:50.649Z,53.60
2018-03-01T21:14:19.347Z,53.60
2018-03-01T21:16:48.019Z,53.20
2018-03-01T21:19:16.692Z,53.30
2018-03-01T21:21:45.419Z,53.40
2018-03-01T21:24:13.762Z,53.60
2018-03-01T21:26:42.451Z,53.80
2018-03-01T21:29:11.112Z,53.70
2018-03-01T21:31:39.800Z,53.80
2018-03-01T21:34:08.493Z,54.10
2018-03-01T21:36:37.172Z,54.00
2018-03-01T21:39:05.186Z,54.10
2018-03-01T21:41:33.861Z,54.10
2018-03-01T21:44:02.235Z,54.30
2018-03-01T21:46:30.913Z,54.50
2018-03-01T21:48:59.401Z,54.60
2018-03-01T21:51:27.789Z,54.70
2018-03-01T21:53:56.478Z,54.50
2018-03-01T21:56:25.174Z,54.40
2018-03-01T21:58:54.636Z,54.50
2018-03-01T22:01:23.328Z,54.50
2018-03-01T22:03:52.177Z,54.40
2018-03-01T22:06:20.880Z,54.60
2018-03-01T22:08:49.552Z,54.70
2018-03-01T22:11:18.238Z,54.90
2018-03-01T22:13:46.924Z,55.20
2018-03-01T22:16:15.282Z,54.30
2018-03-01T22:18:43.983Z,54.50
2018-03-01T22:21:12.651Z,54.70
2018-03-01T22:23:41.331Z,54.80
2018-03-01T22:26:10.784Z,54.90
2018-03-01T22:28:39.459Z,54.90
2018-03-01T22:31:08.154Z,55.00
2018-03-01T22:33:36.852Z,55.20
2018-03-01T22:36:05.195Z,55.10
2018-03-01T22:38:33.858Z,54.70
2018-03-01T22:41:02.542Z,54.90
2018-03-01T22:43:31.227Z,54.80
2018-03-01T22:45:59.908Z,54.50
2018-03-01T22:48:28.597Z,54.80
2018-03-01T22:50:57.309Z,54.80
2018-03-01T22:53:25.998Z,55.30
2018-03-01T22:55:55.457Z,54.70
2018-03-01T22:58:24.744Z,54.60
2018-03-01T23:00:53.882Z,54.90
2018-03-01T23:03:23.020Z,54.90
2018-03-01T23:05:51.354Z,54.80
2018-03-01T23:08:19.706Z,54.70
2018-03-01T23:10:48.396Z,55.10
2018-03-01T23:13:17.095Z,55.20
2018-03-01T23:15:45.776Z,55.00
2018-03-01T23:18:14.471Z,55.30
2018-03-01T23:20:43.939Z,55.30
2018-03-01T23:23:12.648Z,55.40
2018-03-01T23:25:41.304Z,55.20
2018-03-01T23:28:10.753Z,55.20
2018-03-01T23:30:40.208Z,55.20
2018-03-01T23:33:09.460Z,55.40
2018-03-01T23:35:38.914Z,55.70
2018-03-01T23:38:08.353Z,55.60
2018-03-01T23:40:37.225Z,55.60
2018-03-01T23:43:05.926Z,55.80
2018-03-01T23:45:34.264Z,55.50
2018-03-01T23:48:03.703Z,55.40
2018-03-01T23:50:32.379Z,55.40
2018-03-01T23:53:00.740Z,55.70
2018-03-01T23:55:29.408Z,55.50
2018-03-01T23:57:58.863Z,56.10
